createdAt,value
2019-06-10T11:40:59.878Z,30.374756
2019-06-10T11:41:57.689Z,30.294189
2019-06-10T11:42:59.662Z,30.243835
2019-06-10T11:43:59.269Z,30.193481
2019-06-10T11:46:24.038Z,30.112915
2019-06-10T11:47:23.955Z,30.042419
2019-06-10T11:48:24.472Z,30.012207
2019-06-10T11:49:23.935Z,29.981995
2019-06-10T11:50:23.940Z,29.92157
2019-06-10T11:51:23.955Z,29.891357
2019-06-10T11:52:23.901Z,29.871216
2019-06-10T11:53:23.908Z,29.851074
2019-06-10T11:54:24.249Z,29.820862
2019-06-10T11:55:23.928Z,29.820862
2019-06-10T11:56:23.858Z,29.790649
2019-06-10T11:58:23.850Z,29.780579
2019-06-10T11:59:23.847Z,29.760437
2019-06-10T12:00:23.812Z,29.760437
2019-06-10T12:01:23.806Z,29.760437
2019-06-10T12:02:23.791Z,29.760437
2019-06-10T12:03:23.781Z,29.780579
2019-06-10T12:04:23.998Z,29.760437
2019-06-10T12:05:23.764Z,29.780579
2019-06-10T12:06:23.773Z,29.760437
2019-06-10T12:07:23.760Z,29.740295
2019-06-10T12:08:23.926Z,29.740295
2019-06-10T12:09:23.722Z,29.760437
2019-06-10T12:10:23.725Z,29.760437
2019-06-10T12:11:23.714Z,29.740295
2019-06-10T12:12:23.745Z,29.740295
2019-06-10T12:13:23.682Z,29.740295
2019-06-10T12:14:26.929Z,29.740295
2019-06-10T12:15:24.677Z,29.730225
2019-06-10T12:17:12.127Z,29.710083
2019-06-10T12:17:41.393Z,29.710083
2019-06-10T12:18:24.646Z,29.710083
2019-06-10T12:19:23.645Z,29.700012
2019-06-10T12:20:23.607Z,29.700012
2019-06-10T12:21:23.725Z,29.679871
2019-06-10T12:22:23.586Z,29.6698
2019-06-10T12:23:23.587Z,29.639587
2019-06-10T12:24:23.563Z,29.569092
2019-06-10T12:25:32.276Z,29.428101
2019-06-10T12:26:24.539Z,29.327393
2019-06-10T12:27:23.631Z,29.256897
2019-06-10T12:28:23.533Z,29.156189
2019-06-10T12:29:23.527Z,29.105835
2019-06-10T12:30:23.517Z,29.015198
2019-06-10T12:31:23.487Z,28.934631
2019-06-10T12:32:23.478Z,28.864136
2019-06-10T12:33:25.285Z,28.783569
2019-06-10T12:34:23.458Z,28.743286
2019-06-10T12:35:23.447Z,28.713074
2019-06-10T12:36:23.726Z,28.672791
2019-06-10T12:37:23.915Z,28.672791
2019-06-10T12:38:23.421Z,28.672791
2019-06-10T12:39:23.426Z,28.682861
2019-06-10T12:40:23.396Z,28.703003
2019-06-10T12:41:23.569Z,28.672791
2019-06-10T12:42:23.912Z,28.672791
2019-06-10T12:43:23.362Z,28.672791
2019-06-10T12:44:23.353Z,28.672791
2019-06-10T12:45:23.435Z,28.672791
2019-06-10T12:46:23.521Z,28.703003
2019-06-10T12:47:23.318Z,28.713074
2019-06-10T12:48:23.311Z,28.763428
2019-06-10T12:49:23.301Z,28.783569
2019-06-10T12:50:23.291Z,28.833923
2019-06-10T12:51:23.279Z,28.884277
2019-06-10T12:52:23.724Z,28.924561
2019-06-10T12:56:10.469Z,29.075623
2019-06-10T12:57:07.250Z,29.115906
2019-06-10T12:57:54.373Z,29.146118
2019-06-10T12:58:54.499Z,29.176331
2019-06-10T12:59:54.069Z,29.206543
2019-06-10T13:02:22.961Z,29.266968
2019-06-10T13:03:16.456Z,29.266968
2019-06-10T13:04:39.277Z,29.29718
2019-06-10T13:05:39.266Z,29.29718
2019-06-10T13:06:39.256Z,29.256897
2019-06-10T13:07:39.245Z,29.226685
2019-06-10T13:08:39.252Z,29.226685
2019-06-10T13:09:39.223Z,29.236755
2019-06-10T13:10:39.216Z,29.256897
2019-06-10T13:11:39.204Z,29.256897
2019-06-10T13:12:39.191Z,29.266968
2019-06-10T13:13:39.285Z,29.29718
2019-06-10T13:14:39.292Z,29.327393
2019-06-10T13:15:39.278Z,29.337463
2019-06-10T13:16:39.268Z,29.337463
2019-06-10T13:17:39.235Z,29.266968
2019-06-10T13:18:39.298Z,29.206543
2019-06-10T13:19:39.217Z,29.136047
2019-06-10T13:20:39.207Z,29.04541
2019-06-10T13:21:39.222Z,28.964844
2019-06-10T13:22:39.204Z,28.884277
2019-06-10T13:23:39.173Z,28.813782
2019-06-10T13:24:39.165Z,28.803711
2019-06-10T13:25:51.099Z,28.803711
2019-06-10T13:26:39.145Z,28.854065
2019-06-10T13:27:39.133Z,28.884277
2019-06-10T13:28:39.116Z,28.904419
2019-06-10T13:29:39.114Z,28.964844
2019-06-10T13:30:39.107Z,29.035339
2019-06-10T13:31:39.087Z,29.055481
2019-06-10T13:32:39.095Z,29.085693
2019-06-10T13:33:39.073Z,29.115906
2019-06-10T13:34:39.056Z,29.146118
2019-06-10T13:35:39.046Z,29.176331
2019-06-10T13:36:39.048Z,29.186401
2019-06-10T13:37:39.042Z,29.226685
2019-06-10T13:38:39.030Z,29.256897
2019-06-10T13:39:39.027Z,29.266968
2019-06-10T13:40:38.985Z,29.266968
2019-06-10T13:41:39.063Z,29.266968
2019-06-10T13:42:38.982Z,29.266968
2019-06-10T13:43:38.959Z,29.266968
2019-06-10T13:44:38.952Z,29.277039
2019-06-10T13:45:38.934Z,29.277039
2019-06-10T13:46:38.947Z,29.277039
2019-06-10T13:47:38.940Z,29.29718
2019-06-10T13:48:38.901Z,29.29718
2019-06-10T13:49:38.893Z,29.29718
2019-06-10T13:50:38.889Z,29.307251
2019-06-10T13:51:39.004Z,29.307251
2019-06-10T13:52:38.868Z,29.327393
2019-06-10T13:53:38.845Z,29.337463
2019-06-10T13:54:38.866Z,29.337463
2019-06-10T13:55:38.845Z,29.367676
2019-06-10T13:56:46.531Z,29.387817
2019-06-10T13:57:38.819Z,29.407959
2019-06-10T13:58:38.810Z,29.41803
2019-06-10T13:59:38.797Z,29.428101
2019-06-10T14:00:42.598Z,29.428101
2019-06-10T14:01:38.789Z,29.448242
2019-06-10T14:02:38.749Z,29.458313
2019-06-10T14:03:38.760Z,29.428101
2019-06-10T14:04:38.748Z,29.448242
2019-06-10T14:05:38.715Z,29.428101
2019-06-10T14:06:46.924Z,29.428101
2019-06-10T14:07:38.693Z,29.458313
2019-06-10T14:08:38.689Z,29.458313
2019-06-10T14:09:38.684Z,29.458313
2019-06-10T14:10:38.683Z,29.478455
2019-06-10T14:11:38.683Z,29.478455
2019-06-10T14:12:38.644Z,29.478455
2019-06-10T14:13:38.650Z,29.428101
2019-06-10T14:14:38.629Z,29.428101
2019-06-10T14:15:38.643Z,29.428101
2019-06-10T14:16:38.600Z,29.41803
2019-06-10T14:17:38.599Z,29.41803
2019-06-10T14:18:38.579Z,29.428101
2019-06-10T14:19:38.624Z,29.448242
2019-06-10T14:20:38.557Z,29.448242
2019-06-10T14:21:38.567Z,29.478455
2019-06-10T14:22:38.550Z,29.458313
2019-06-10T14:23:38.523Z,29.448242
2019-06-10T14:24:38.532Z,29.41803
2019-06-10T14:25:38.503Z,29.407959
2019-06-10T14:26:42.845Z,29.387817
2019-06-10T14:27:38.500Z,29.41803
2019-06-10T14:28:40.885Z,29.407959
2019-06-10T14:29:38.465Z,29.407959
2019-06-10T14:30:38.450Z,29.407959
2019-06-10T14:31:43.778Z,29.41803
2019-06-10T14:32:38.423Z,29.428101
2019-06-10T14:33:38.418Z,29.448242
2019-06-10T14:34:38.406Z,29.478455
2019-06-10T14:35:39.399Z,29.478455
2019-06-10T14:36:38.386Z,29.488525
2019-06-10T14:37:39.213Z,29.508667
2019-06-10T14:38:38.369Z,29.508667
2019-06-10T14:39:38.369Z,29.508667
2019-06-10T14:40:38.341Z,29.488525
2019-06-10T14:41:38.325Z,29.458313
2019-06-10T14:42:38.316Z,29.458313
2019-06-10T14:43:38.319Z,29.448242
2019-06-10T14:44:38.334Z,29.478455
2019-06-10T14:45:39.293Z,29.488525
2019-06-10T14:46:38.275Z,29.488525
2019-06-10T14:47:38.282Z,29.508667
2019-06-10T14:48:38.261Z,29.518738
2019-06-10T14:49:38.244Z,29.508667
2019-06-10T14:50:38.231Z,29.528809
2019-06-10T14:51:38.218Z,29.518738
2019-06-10T14:52:38.210Z,29.518738
2019-06-10T14:53:38.201Z,29.508667
2019-06-10T14:54:38.209Z,29.508667
2019-06-10T14:55:38.180Z,29.488525
2019-06-10T14:56:50.425Z,29.478455
2019-06-10T14:57:38.174Z,29.478455
2019-06-10T14:58:38.141Z,29.458313
2019-06-10T14:59:38.155Z,29.508667
2019-06-10T15:00:38.130Z,29.488525
2019-06-10T15:01:38.163Z,29.458313
2019-06-10T15:02:38.102Z,29.448242
2019-06-10T15:03:38.105Z,29.428101
2019-06-10T15:04:38.101Z,29.428101
2019-06-10T15:05:38.075Z,29.407959
2019-06-10T15:06:38.059Z,29.387817
2019-06-10T15:07:38.050Z,29.387817
2019-06-10T15:08:38.038Z,29.367676
2019-06-10T15:09:38.027Z,29.367676
2019-06-10T15:10:38.031Z,29.387817
2019-06-10T15:11:38.030Z,29.407959
2019-06-10T15:12:38.011Z,29.41803
2019-06-10T15:13:37.996Z,29.428101
2019-06-10T15:14:37.967Z,29.428101
2019-06-10T15:15:37.966Z,29.448242
2019-06-10T15:16:37.951Z,29.458313
2019-06-10T15:17:37.953Z,29.458313
2019-06-10T15:18:37.946Z,29.488525
2019-06-10T15:19:37.917Z,29.478455
2019-06-10T15:20:37.980Z,29.488525
2019-06-10T15:21:37.911Z,29.508667
2019-06-10T15:22:37.899Z,29.518738
2019-06-10T15:23:37.871Z,29.528809
2019-06-10T15:24:37.865Z,29.528809
2019-06-10T15:25:49.785Z,29.528809
2019-06-10T15:26:37.869Z,29.518738
2019-06-10T15:27:37.828Z,29.508667
2019-06-10T15:28:37.824Z,29.458313
2019-06-10T15:29:37.807Z,29.448242
2019-06-10T15:30:37.802Z,29.428101
2019-06-10T15:31:37.808Z,29.448242
2019-06-10T15:32:37.898Z,29.458313
2019-06-10T15:33:37.775Z,29.478455
2019-06-10T15:34:37.752Z,29.488525
2019-06-10T15:35:37.756Z,29.478455
2019-06-10T15:36:37.734Z,29.488525
2019-06-10T15:37:37.750Z,29.508667
2019-06-10T15:38:37.721Z,29.518738
2019-06-10T15:39:37.720Z,29.528809
2019-06-10T15:40:37.692Z,29.528809
2019-06-10T15:41:37.749Z,29.528809
2019-06-10T15:42:37.684Z,29.528809
2019-06-10T15:43:37.655Z,29.54895
2019-06-10T15:44:48.164Z,29.528809
2019-06-10T15:45:37.665Z,29.569092
2019-06-10T15:46:37.654Z,29.579163
2019-06-10T15:47:37.617Z,29.599304
2019-06-10T15:48:37.642Z,29.629517
2019-06-10T15:49:37.598Z,29.639587
2019-06-10T15:50:37.585Z,29.6698
2019-06-10T15:51:37.592Z,29.710083
2019-06-10T15:52:37.587Z,29.740295
2019-06-10T15:53:37.547Z,29.780579
2019-06-10T15:54:37.537Z,29.790649
2019-06-10T15:56:05.212Z,29.80072
2019-06-10T15:56:46.823Z,29.820862
2019-06-10T15:57:42.476Z,29.830933
2019-06-10T15:58:37.494Z,29.851074
2019-06-10T15:59:37.526Z,29.861145
2019-06-10T16:00:37.490Z,29.861145
2019-06-10T16:01:37.467Z,29.871216
2019-06-10T16:02:37.458Z,29.891357
2019-06-10T16:03:37.458Z,29.891357
2019-06-10T16:04:37.474Z,29.901428
2019-06-10T16:05:37.424Z,29.901428
2019-06-10T16:06:37.414Z,29.901428
2019-06-10T16:07:37.403Z,29.891357
2019-06-10T16:08:37.427Z,29.861145
2019-06-10T16:09:37.393Z,29.851074
2019-06-10T16:10:37.366Z,29.820862
2019-06-10T16:11:40.214Z,29.790649
2019-06-10T16:12:37.403Z,29.780579
2019-06-10T16:13:37.333Z,29.760437
2019-06-10T16:14:37.321Z,29.740295
2019-06-10T16:15:37.327Z,29.730225
